createdAt,value
2018-04-30T00:00:12.921Z,99.90
2018-04-30T00:02:40.382Z,99.90
2018-04-30T00:05:07.828Z,99.90
2018-04-30T00:07:35.285Z,99.90
2018-04-30T00:10:03.156Z,99.90
2018-04-30T00:12:31.056Z,99.90
2018-04-30T00:14:59.289Z,99.90
2018-04-30T00:17:26.736Z,99.90
2018-04-30T00:19:55.036Z,99.90
2018-04-30T00:22:22.494Z,99.90
2018-04-30T00:24:49.948Z,99.90
2018-04-30T00:27:17.408Z,99.90
2018-04-30T00:29:44.871Z,99.90
2018-04-30T00:32:12.319Z,99.90
2018-04-30T00:34:39.776Z,99.90
2018-04-30T00:37:07.232Z,99.90
2018-04-30T00:39:34.688Z,99.90
2018-04-30T00:42:02.152Z,99.90
2018-04-30T00:44:29.604Z,99.90
2018-04-30T00:46:57.492Z,99.90
2018-04-30T00:49:24.944Z,99.90
2018-04-30T00:51:52.399Z,99.90
2018-04-30T00:54:31.735Z,99.90
2018-04-30T00:56:59.617Z,99.90
2018-04-30T00:59:27.846Z,99.90
2018-04-30T01:01:56.059Z,99.90
2018-04-30T01:04:24.286Z,99.90
2018-04-30T01:06:51.728Z,99.90
2018-04-30T01:09:19.804Z,99.90
2018-04-30T01:11:47.291Z,99.90
2018-04-30T01:14:14.748Z,99.90
2018-04-30T01:16:42.205Z,99.90
2018-04-30T01:19:09.711Z,99.90
2018-04-30T01:21:37.167Z,99.90
2018-04-30T01:24:05.999Z,99.90
2018-04-30T01:26:33.448Z,99.90
2018-04-30T01:29:03.376Z,99.90
2018-04-30T01:31:33.303Z,99.90
2018-04-30T01:34:01.869Z,99.90
2018-04-30T01:36:29.739Z,99.90
2018-04-30T01:38:57.192Z,99.90
2018-04-30T01:41:25.443Z,99.90
2018-04-30T01:43:53.363Z,99.90
2018-04-30T01:46:21.541Z,99.90
2018-04-30T01:48:49.038Z,99.90
2018-04-30T01:51:16.888Z,99.90
2018-04-30T01:53:45.305Z,99.90
2018-04-30T01:56:13.306Z,99.90
2018-04-30T01:58:40.759Z,99.90
2018-04-30T02:01:08.230Z,99.90
2018-04-30T02:03:36.168Z,99.90
2018-04-30T02:06:03.635Z,99.90
2018-04-30T02:08:31.071Z,99.90
2018-04-30T02:10:59.326Z,99.90
2018-04-30T02:13:27.181Z,99.90
2018-04-30T02:15:55.395Z,99.90
2018-04-30T02:18:22.848Z,99.90
2018-04-30T02:20:50.293Z,99.90
2018-04-30T02:23:18.364Z,99.90
2018-04-30T02:25:47.255Z,99.90
2018-04-30T02:28:14.767Z,99.90
2018-04-30T02:30:42.955Z,99.90
2018-04-30T02:33:11.252Z,99.90
2018-04-30T02:35:38.724Z,99.90
2018-04-30T02:38:06.208Z,99.90
2018-04-30T02:40:34.032Z,99.90
2018-04-30T02:43:02.349Z,99.90
2018-04-30T02:45:29.804Z,99.90
2018-04-30T02:47:57.879Z,99.90
2018-04-30T02:50:25.490Z,99.90
2018-04-30T02:52:53.002Z,99.90
2018-04-30T02:55:20.484Z,99.90
2018-04-30T02:57:48.045Z,99.90
2018-04-30T03:00:16.415Z,99.90
2018-04-30T03:02:44.718Z,99.90
2018-04-30T03:05:13.096Z,99.90
2018-04-30T03:07:41.123Z,99.90
2018-04-30T03:10:10.128Z,99.90
2018-04-30T03:12:38.234Z,99.90
2018-04-30T03:15:06.977Z,99.90
2018-04-30T03:17:34.511Z,99.90
2018-04-30T03:20:02.133Z,99.90
2018-04-30T03:22:30.240Z,99.90
2018-04-30T03:24:57.728Z,99.90
2018-04-30T03:27:27.781Z,99.90
2018-04-30T03:29:56.001Z,99.90
2018-04-30T03:32:23.460Z,99.90
2018-04-30T03:34:50.913Z,99.90
2018-04-30T03:37:19.257Z,99.90
2018-04-30T03:39:47.144Z,99.90
2018-04-30T03:42:15.099Z,99.90
2018-04-30T03:44:42.559Z,99.90
2018-04-30T03:47:16.575Z,99.90
2018-04-30T03:49:44.110Z,99.90
2018-04-30T03:52:11.937Z,99.90
2018-04-30T03:54:39.380Z,99.90
2018-04-30T03:57:06.835Z,99.90
2018-04-30T03:59:34.296Z,99.90
2018-04-30T04:02:13.609Z,99.90
2018-04-30T04:04:53.034Z,99.90
2018-04-30T04:07:20.929Z,99.90
2018-04-30T04:09:48.673Z,99.90
2018-04-30T04:12:16.135Z,99.90
2018-04-30T04:14:44.120Z,99.90
2018-04-30T04:17:11.608Z,99.90
2018-04-30T04:19:39.057Z,99.90
2018-04-30T04:22:06.522Z,99.90
2018-04-30T04:24:34.059Z,99.90
2018-04-30T04:27:01.533Z,99.90
2018-04-30T04:29:28.977Z,99.90
2018-04-30T04:31:56.485Z,99.90
2018-04-30T04:34:24.718Z,99.90
2018-04-30T04:36:52.167Z,99.90
2018-04-30T04:39:19.673Z,99.90
2018-04-30T04:41:47.204Z,99.90
2018-04-30T04:44:15.821Z,99.90
2018-04-30T04:46:43.267Z,99.90
2018-04-30T04:49:13.146Z,99.90
2018-04-30T04:51:41.769Z,99.90
2018-04-30T04:54:09.968Z,99.90
2018-04-30T04:56:37.441Z,99.90
2018-04-30T04:59:04.905Z,99.90
2018-04-30T05:01:32.349Z,99.90
2018-04-30T05:03:59.791Z,99.90
2018-04-30T05:06:27.248Z,99.90
2018-04-30T05:08:54.706Z,99.90
2018-04-30T05:11:22.171Z,99.90
2018-04-30T05:13:49.786Z,99.90
2018-04-30T05:16:17.552Z,99.90
2018-04-30T05:18:45.828Z,99.90
2018-04-30T05:21:14.209Z,99.90
2018-04-30T05:23:42.583Z,99.90
2018-04-30T05:26:15.879Z,99.90
2018-04-30T05:28:44.263Z,99.90
2018-04-30T05:31:12.500Z,99.90
2018-04-30T05:33:39.960Z,99.90
2018-04-30T05:36:07.420Z,99.90
2018-04-30T05:38:34.899Z,99.90
2018-04-30T05:41:02.336Z,99.90
2018-04-30T05:43:29.789Z,99.90
2018-04-30T05:45:57.244Z,99.90
2018-04-30T05:48:24.840Z,99.90
2018-04-30T05:50:53.055Z,99.90
2018-04-30T05:53:20.675Z,99.90
2018-04-30T05:55:48.929Z,99.90
2018-04-30T05:58:16.833Z,99.90
2018-04-30T06:00:44.481Z,99.90
2018-04-30T06:03:13.176Z,99.90
2018-04-30T06:05:42.424Z,99.90
2018-04-30T06:08:10.014Z,99.90
2018-04-30T06:10:37.696Z,99.90
2018-04-30T06:13:06.335Z,99.90
2018-04-30T06:15:34.068Z,99.90
2018-04-30T06:18:01.523Z,99.90
2018-04-30T06:20:29.437Z,99.90
2018-04-30T06:22:57.088Z,99.90
2018-04-30T06:25:25.365Z,99.90
2018-04-30T06:27:52.867Z,99.90
2018-04-30T06:30:20.321Z,99.90
2018-04-30T06:32:47.776Z,99.90
2018-04-30T06:35:16.165Z,99.90
2018-04-30T06:37:43.640Z,99.90
2018-04-30T06:40:11.093Z,99.90
2018-04-30T06:42:38.556Z,99.90
2018-04-30T06:45:06.008Z,99.90
2018-04-30T06:47:34.167Z,99.90
2018-04-30T06:50:01.622Z,99.90
2018-04-30T06:52:29.270Z,99.90
2018-04-30T06:54:59.624Z,99.90
2018-04-30T06:57:27.651Z,99.90
2018-04-30T06:59:55.092Z,99.90
2018-04-30T07:02:23.172Z,99.90
2018-04-30T07:04:50.873Z,99.90
2018-04-30T07:07:18.424Z,99.90
2018-04-30T07:09:46.291Z,99.90
2018-04-30T07:12:13.885Z,99.90
2018-04-30T07:14:41.369Z,99.90
2018-04-30T07:17:09.002Z,99.90
2018-04-30T07:19:37.041Z,99.90
2018-04-30T07:22:05.304Z,99.90
2018-04-30T07:24:33.666Z,99.90
2018-04-30T07:27:01.370Z,99.90
2018-04-30T07:29:29.636Z,99.90
2018-04-30T07:31:58.026Z,99.90
2018-04-30T07:34:25.580Z,99.90
2018-04-30T07:36:53.803Z,99.90
2018-04-30T07:39:21.259Z,99.90
2018-04-30T07:41:49.333Z,99.90
2018-04-30T07:44:16.998Z,99.90
2018-04-30T07:46:46.416Z,99.90
2018-04-30T07:49:15.141Z,99.90
2018-04-30T07:51:42.529Z,99.90
2018-04-30T07:54:09.980Z,99.90
2018-04-30T07:56:37.592Z,99.90
2018-04-30T07:59:05.878Z,99.90
2018-04-30T08:01:34.515Z,99.90
2018-04-30T08:04:01.980Z,99.90
2018-04-30T08:06:29.959Z,99.90
2018-04-30T08:08:57.912Z,99.90
2018-04-30T08:11:25.374Z,99.90
2018-04-30T08:13:52.829Z,99.90
2018-04-30T08:16:20.283Z,99.90
2018-04-30T08:18:47.741Z,99.90
2018-04-30T08:21:15.324Z,99.90
2018-04-30T08:23:42.790Z,99.90
2018-04-30T08:26:11.007Z,99.90
2018-04-30T08:28:38.598Z,99.90
2018-04-30T08:31:06.095Z,99.90
2018-04-30T08:33:33.993Z,99.90
2018-04-30T08:36:01.467Z,99.90
2018-04-30T08:38:28.941Z,99.90
2018-04-30T08:40:56.448Z,99.90
2018-04-30T08:43:24.815Z,99.90
2018-04-30T08:45:53.034Z,99.90
2018-04-30T08:48:20.749Z,99.90
2018-04-30T08:50:48.136Z,99.90
2018-04-30T08:53:15.614Z,99.90
2018-04-30T08:55:43.093Z,99.90
2018-04-30T08:58:10.610Z,99.90
2018-04-30T09:00:38.158Z,99.90
2018-04-30T09:03:05.536Z,99.90
2018-04-30T09:05:32.988Z,99.90
2018-04-30T09:08:00.453Z,99.90
2018-04-30T09:10:27.907Z,99.90
2018-04-30T09:12:55.376Z,99.90
2018-04-30T09:15:23.100Z,99.90
2018-04-30T09:17:50.551Z,99.90
2018-04-30T09:20:18.001Z,99.90
2018-04-30T09:22:45.721Z,99.90
2018-04-30T09:25:13.264Z,99.90
2018-04-30T09:27:40.707Z,99.90
2018-04-30T09:30:08.153Z,99.90
2018-04-30T09:32:35.603Z,99.90
2018-04-30T09:35:03.104Z,99.90
2018-04-30T09:37:31.225Z,99.90
2018-04-30T09:39:58.675Z,99.90
2018-04-30T09:42:26.428Z,99.90
2018-04-30T09:44:54.630Z,99.90
2018-04-30T09:47:22.102Z,99.90
2018-04-30T09:49:50.914Z,99.90
2018-04-30T09:52:18.394Z,99.90
2018-04-30T09:54:45.844Z,99.90
2018-04-30T09:57:13.296Z,99.90
2018-04-30T09:59:40.780Z,99.90
2018-04-30T10:02:09.733Z,99.90
2018-04-30T10:04:37.407Z,99.90
2018-04-30T10:07:04.906Z,99.90
2018-04-30T10:09:32.344Z,99.90
2018-04-30T10:12:00.574Z,99.90
2018-04-30T10:14:28.458Z,99.90
2018-04-30T10:16:56.368Z,99.90
2018-04-30T10:19:23.935Z,99.90
2018-04-30T10:21:51.379Z,99.90
2018-04-30T10:24:18.835Z,99.70
2018-04-30T10:26:47.127Z,99.90
2018-04-30T10:29:15.256Z,99.90
2018-04-30T10:31:42.703Z,99.90
2018-04-30T10:34:10.156Z,99.90
2018-04-30T10:36:37.617Z,99.30
2018-04-30T10:39:05.784Z,98.50
2018-04-30T10:41:33.452Z,98.70
2018-04-30T10:44:00.903Z,96.90
2018-04-30T10:46:29.081Z,92.70
2018-04-30T10:48:56.642Z,92.20
2018-04-30T10:51:24.766Z,93.10
2018-04-30T10:53:52.409Z,92.40
2018-04-30T10:56:20.654Z,91.20
2018-04-30T10:58:48.126Z,91.40
2018-04-30T11:01:15.671Z,82.70
2018-04-30T11:03:43.185Z,76.00
2018-04-30T11:06:10.619Z,76.30
2018-04-30T11:08:38.091Z,75.20
2018-04-30T11:11:05.544Z,78.80
2018-04-30T11:13:33.163Z,82.80
2018-04-30T11:16:00.624Z,78.70
2018-04-30T11:18:28.071Z,75.30
2018-04-30T11:20:55.637Z,74.90
2018-04-30T11:23:23.154Z,75.80
2018-04-30T11:25:50.609Z,73.80
2018-04-30T11:28:18.127Z,77.00
2018-04-30T11:30:46.361Z,81.20
2018-04-30T11:33:14.710Z,81.20
2018-04-30T11:35:42.196Z,80.90
2018-04-30T11:38:09.666Z,76.10
2018-04-30T11:40:37.596Z,71.40
2018-04-30T11:43:05.057Z,73.20
2018-04-30T11:45:32.525Z,72.20
2018-04-30T11:47:59.981Z,72.20
2018-04-30T11:50:27.443Z,71.80
2018-04-30T11:52:54.934Z,72.40
2018-04-30T11:55:22.379Z,71.90
2018-04-30T11:57:49.856Z,72.30
2018-04-30T12:00:17.326Z,69.20
2018-04-30T12:02:45.579Z,70.10
2018-04-30T12:05:13.127Z,70.10
2018-04-30T12:07:41.428Z,72.10
2018-04-30T12:10:10.636Z,71.70
2018-04-30T12:12:38.852Z,69.50
2018-04-30T12:15:06.340Z,69.50
2018-04-30T12:17:33.793Z,69.60
2018-04-30T12:20:01.254Z,69.30
2018-04-30T12:22:28.709Z,64.00
2018-04-30T12:24:56.164Z,66.40
2018-04-30T12:27:23.623Z,65.70
2018-04-30T12:29:51.957Z,67.00
2018-04-30T12:32:20.171Z,70.00
2018-04-30T12:34:47.728Z,69.40
2018-04-30T12:37:15.179Z,65.40
2018-04-30T12:39:42.663Z,66.40
2018-04-30T12:42:10.135Z,64.60
2018-04-30T12:44:38.682Z,65.50
2018-04-30T12:47:06.135Z,65.40
2018-04-30T12:49:33.661Z,62.80
2018-04-30T12:52:01.172Z,60.90
2018-04-30T12:54:28.631Z,59.60
2018-04-30T12:56:56.183Z,59.10
2018-04-30T12:59:24.076Z,60.00
2018-04-30T13:01:52.304Z,57.80
2018-04-30T13:04:19.762Z,57.80
2018-04-30T13:06:47.215Z,59.40
2018-04-30T13:09:15.056Z,60.00
2018-04-30T13:11:43.670Z,58.90
2018-04-30T13:14:11.115Z,59.10
2018-04-30T13:16:38.607Z,57.90
2018-04-30T13:19:06.058Z,59.50
2018-04-30T13:21:34.267Z,58.60
2018-04-30T13:24:02.472Z,57.80
2018-04-30T13:26:30.646Z,57.80
2018-04-30T13:28:58.500Z,57.70
2018-04-30T13:31:26.025Z,59.00
2018-04-30T13:33:54.686Z,59.50
2018-04-30T13:36:22.240Z,59.50
2018-04-30T13:38:49.700Z,59.70
2018-04-30T13:41:18.187Z,59.80
2018-04-30T13:43:45.736Z,59.20
2018-04-30T13:46:13.196Z,60.00
2018-04-30T13:48:40.690Z,59.10
2018-04-30T13:51:09.541Z,59.80
2018-04-30T13:53:38.586Z,59.80
2018-04-30T13:56:06.104Z,59.00
2018-04-30T13:58:33.552Z,59.70
2018-04-30T14:01:01.123Z,61.20
2018-04-30T14:03:28.572Z,63.80
2018-04-30T14:05:56.044Z,62.40
2018-04-30T14:08:23.605Z,62.40
2018-04-30T14:10:51.045Z,57.50
2018-04-30T14:13:18.538Z,56.70
2018-04-30T14:15:46.764Z,57.10
2018-04-30T14:18:14.748Z,57.10
2018-04-30T14:20:42.329Z,59.80
2018-04-30T14:23:10.563Z,59.80
2018-04-30T14:25:38.018Z,59.90
2018-04-30T14:28:05.476Z,61.20
2018-04-30T14:30:32.928Z,61.50
2018-04-30T14:33:00.409Z,63.40
2018-04-30T14:35:27.959Z,63.40
2018-04-30T14:37:55.432Z,64.60
2018-04-30T14:40:22.979Z,64.00
2018-04-30T14:42:50.442Z,64.20
2018-04-30T14:45:18.730Z,63.00
2018-04-30T14:47:46.160Z,62.90
2018-04-30T14:50:13.625Z,62.00
2018-04-30T14:52:41.088Z,60.80
2018-04-30T14:55:08.952Z,60.10
2018-04-30T14:57:36.408Z,60.20
2018-04-30T15:00:03.891Z,62.20
2018-04-30T15:02:32.666Z,58.30
2018-04-30T15:05:00.149Z,58.20
2018-04-30T15:07:28.397Z,60.10
2018-04-30T15:09:55.847Z,60.00
2018-04-30T15:12:23.357Z,60.60
2018-04-30T15:14:50.834Z,59.80
2018-04-30T15:17:18.355Z,59.40
2018-04-30T15:19:46.538Z,61.20
2018-04-30T15:22:14.747Z,59.50
2018-04-30T15:24:42.203Z,59.50
2018-04-30T15:27:09.658Z,60.50
2018-04-30T15:29:37.112Z,59.90
2018-04-30T15:32:04.584Z,58.30
2018-04-30T15:34:32.315Z,60.30
2018-04-30T15:36:59.756Z,60.90
2018-04-30T15:39:27.208Z,59.50
2018-04-30T15:41:54.678Z,59.60
2018-04-30T15:44:23.135Z,61.00
2018-04-30T15:46:51.386Z,60.00
2018-04-30T15:49:18.861Z,60.10
2018-04-30T15:51:46.456Z,57.60
2018-04-30T15:54:15.327Z,58.40
2018-04-30T15:56:43.567Z,58.10
2018-04-30T15:59:15.169Z,57.90
2018-04-30T16:01:43.068Z,58.30
2018-04-30T16:04:10.512Z,58.50
2018-04-30T16:06:39.018Z,58.60
2018-04-30T16:09:06.494Z,59.20
2018-04-30T16:11:34.559Z,59.10
2018-04-30T16:14:02.018Z,60.40
2018-04-30T16:16:29.465Z,60.80
2018-04-30T16:18:56.917Z,61.90
2018-04-30T16:21:24.368Z,63.40
2018-04-30T16:23:51.832Z,66.00
2018-04-30T16:26:19.655Z,67.10
2018-04-30T16:28:47.805Z,67.50
2018-04-30T16:31:16.072Z,65.30
2018-04-30T16:33:43.516Z,64.40
2018-04-30T16:36:11.013Z,62.80
2018-04-30T16:38:39.428Z,60.20
2018-04-30T16:41:06.891Z,60.20
2018-04-30T16:43:34.370Z,60.70
2018-04-30T16:46:01.868Z,60.40
2018-04-30T16:48:29.487Z,60.10
2018-04-30T16:50:57.617Z,60.20
2018-04-30T16:53:25.195Z,61.50
2018-04-30T16:55:53.184Z,60.60
2018-04-30T16:58:21.263Z,60.50
2018-04-30T17:00:49.603Z,61.80
2018-04-30T17:03:17.063Z,61.60
2018-04-30T17:05:44.532Z,62.00
2018-04-30T17:08:11.973Z,61.60
2018-04-30T17:10:39.872Z,61.40
2018-04-30T17:13:07.267Z,62.20
2018-04-30T17:15:35.183Z,62.30
2018-04-30T17:18:03.418Z,65.20
2018-04-30T17:20:30.857Z,64.30
2018-04-30T17:22:59.071Z,68.50
2018-04-30T17:25:27.276Z,68.50
2018-04-30T17:27:54.736Z,71.30
2018-04-30T17:30:22.255Z,75.30
2018-04-30T17:32:50.468Z,81.80
2018-04-30T17:35:18.840Z,81.80
2018-04-30T17:37:46.300Z,83.60
2018-04-30T17:40:13.859Z,82.70
2018-04-30T17:42:41.319Z,82.00
2018-04-30T17:45:11.377Z,81.80
2018-04-30T17:47:39.122Z,83.30
2018-04-30T17:50:06.573Z,85.10
2018-04-30T17:52:34.085Z,87.00
2018-04-30T17:55:01.539Z,87.90
2018-04-30T17:57:29.007Z,90.00
2018-04-30T17:59:57.750Z,90.90
2018-04-30T18:02:25.216Z,91.50
2018-04-30T18:04:53.237Z,93.00
2018-04-30T18:07:20.754Z,94.60
2018-04-30T18:09:48.355Z,95.80
2018-04-30T18:12:15.806Z,97.40
2018-04-30T18:14:43.278Z,99.30
2018-04-30T18:17:11.311Z,99.90
2018-04-30T18:19:38.791Z,99.90
2018-04-30T18:22:06.252Z,99.90
2018-04-30T18:24:34.261Z,99.90
2018-04-30T18:27:02.480Z,99.90
2018-04-30T18:29:29.935Z,99.90
2018-04-30T18:31:57.407Z,99.90
2018-04-30T18:34:26.824Z,99.90
2018-04-30T18:36:54.698Z,99.90
2018-04-30T18:39:27.419Z,99.90
2018-04-30T18:41:55.107Z,99.90
2018-04-30T18:44:23.137Z,99.90
2018-04-30T18:46:51.343Z,99.90
2018-04-30T18:49:18.817Z,99.90
2018-04-30T18:51:46.277Z,99.90
2018-04-30T18:54:13.733Z,99.90
2018-04-30T18:56:41.196Z,99.90
2018-04-30T18:59:08.751Z,99.90
2018-04-30T19:01:36.214Z,99.90
2018-04-30T19:04:03.668Z,99.90
2018-04-30T19:06:31.221Z,99.90
2018-04-30T19:08:58.664Z,99.90
2018-04-30T19:11:26.110Z,99.90
2018-04-30T19:13:53.788Z,99.90
2018-04-30T19:16:21.242Z,99.90
2018-04-30T19:18:48.696Z,99.90
2018-04-30T19:21:16.172Z,99.90
2018-04-30T19:23:43.625Z,99.90
2018-04-30T19:26:11.125Z,99.90
2018-04-30T19:28:39.373Z,99.90
2018-04-30T19:31:06.849Z,99.90
2018-04-30T19:33:34.288Z,99.90
2018-04-30T19:36:02.711Z,99.90
2018-04-30T19:38:30.155Z,99.90
2018-04-30T19:40:58.537Z,99.90
2018-04-30T19:43:26.748Z,99.90
2018-04-30T19:45:54.217Z,99.90
2018-04-30T19:48:21.662Z,99.90
2018-04-30T19:50:49.798Z,99.90
2018-04-30T19:53:18.083Z,99.90
2018-04-30T19:55:46.291Z,99.90
2018-04-30T19:58:13.744Z,99.90
2018-04-30T20:00:41.197Z,99.90
2018-04-30T20:03:08.661Z,99.90
2018-04-30T20:05:36.104Z,99.90
2018-04-30T20:08:03.562Z,99.90
2018-04-30T20:10:31.556Z,99.90
2018-04-30T20:12:58.999Z,99.90
2018-04-30T20:15:26.467Z,99.90
2018-04-30T20:17:54.182Z,99.90
2018-04-30T20:20:21.713Z,99.90
2018-04-30T20:22:49.152Z,99.90
2018-04-30T20:25:16.600Z,99.90
2018-04-30T20:27:44.115Z,99.90
2018-04-30T20:30:12.342Z,99.90
2018-04-30T20:32:39.850Z,99.90
2018-04-30T20:35:08.076Z,99.90
2018-04-30T20:37:35.532Z,99.90
2018-04-30T20:40:02.979Z,99.90
2018-04-30T20:42:30.460Z,99.90
2018-04-30T20:44:57.902Z,99.90
2018-04-30T20:47:25.369Z,99.90
2018-04-30T20:49:52.837Z,99.90
2018-04-30T20:52:20.296Z,99.90
2018-04-30T20:54:47.786Z,99.90
2018-04-30T20:57:16.000Z,99.90
2018-04-30T20:59:43.458Z,99.90
2018-04-30T21:02:11.094Z,99.90
2018-04-30T21:04:38.727Z,99.90
2018-04-30T21:07:07.484Z,99.90
2018-04-30T21:09:35.904Z,99.90
2018-04-30T21:12:04.715Z,99.90
2018-04-30T21:14:32.504Z,99.90
2018-04-30T21:16:59.972Z,99.90
2018-04-30T21:19:27.419Z,99.90
2018-04-30T21:21:54.860Z,99.90
2018-04-30T21:24:22.408Z,99.90
2018-04-30T21:26:50.183Z,99.90
2018-04-30T21:29:17.728Z,99.90
2018-04-30T21:31:45.120Z,99.90
2018-04-30T21:34:13.284Z,99.90
2018-04-30T21:36:41.615Z,99.90
2018-04-30T21:39:10.302Z,99.90
2018-04-30T21:41:38.323Z,99.90
2018-04-30T21:44:05.835Z,99.90
2018-04-30T21:46:34.044Z,99.90
2018-04-30T21:49:01.497Z,99.90
2018-04-30T21:51:28.951Z,99.90
2018-04-30T21:53:56.702Z,99.90
2018-04-30T21:56:24.153Z,99.90
2018-04-30T21:58:51.656Z,99.90
2018-04-30T22:01:19.530Z,99.90
2018-04-30T22:03:47.039Z,99.90
2018-04-30T22:06:15.736Z,99.90
2018-04-30T22:08:43.192Z,99.90
2018-04-30T22:11:11.175Z,99.90
2018-04-30T22:13:38.673Z,99.90
2018-04-30T22:16:07.358Z,99.90
2018-04-30T22:18:34.803Z,99.90
2018-04-30T22:21:02.257Z,99.90
2018-04-30T22:23:30.098Z,99.90
2018-04-30T22:25:57.952Z,99.90
2018-04-30T22:28:25.406Z,99.90
2018-04-30T22:30:52.883Z,99.90
2018-04-30T22:33:23.588Z,99.90
2018-04-30T22:35:51.043Z,99.90
2018-04-30T22:38:18.483Z,99.90
2018-04-30T22:40:46.011Z,99.90
2018-04-30T22:43:14.360Z,99.90
2018-04-30T22:45:41.825Z,99.90
2018-04-30T22:48:09.277Z,99.90
2018-04-30T22:50:36.770Z,99.90
2018-04-30T22:53:04.216Z,99.90
2018-04-30T22:55:32.052Z,99.90
2018-04-30T22:57:59.513Z,99.90
2018-04-30T23:00:26.973Z,99.90
2018-04-30T23:02:54.853Z,99.90
2018-04-30T23:05:22.291Z,99.90
2018-04-30T23:07:49.770Z,99.90
2018-04-30T23:10:17.232Z,99.90
2018-04-30T23:12:45.154Z,99.90
2018-04-30T23:15:13.528Z,99.90
2018-04-30T23:17:40.998Z,99.90
2018-04-30T23:20:08.864Z,99.90
2018-04-30T23:22:36.983Z,99.90
2018-04-30T23:25:05.295Z,99.90
2018-04-30T23:27:32.741Z,99.90
2018-04-30T23:30:00.194Z,99.90
2018-04-30T23:32:28.821Z,99.90
2018-04-30T23:34:56.902Z,99.90
2018-04-30T23:37:24.392Z,99.90
2018-04-30T23:39:51.833Z,99.90
2018-04-30T23:42:19.325Z,99.90
2018-04-30T23:44:47.583Z,99.90
2018-04-30T23:47:15.070Z,99.90
2018-04-30T23:49:42.515Z,99.90
2018-04-30T23:52:09.993Z,99.90
2018-04-30T23:54:37.425Z,99.90
2018-04-30T23:57:07.296Z,99.90
2018-04-30T23:59:35.624Z,99.90
